Data for 02/06/2018

Time Sea-Level Adjusted Pressure Absolute Pressure Temperature Relative Humidity Dew Point   
(mb) (inHg) (mb) (inHg) (C) (F) (%) (C) (F)
00:05 1015 29.97 844 24.92 -7.3 18.9 82 -9.8 14.3
00:10 1015 29.97 844 24.92 -7.3 18.9 82 -9.8 14.4
00:15 1015 29.97 844 24.92 -7.3 19 83 -9.7 14.6
00:20 1015 29.97 844 24.92 -7.2 19 82 -9.7 14.5
00:25 1015 29.97 844 24.92 -7.2 19.1 82 -9.7 14.6
00:30 1015 29.97 844 24.92 -7.1 19.1 82 -9.7 14.6
00:35 1015 29.97 844 24.92 -7.1 19.2 82 -9.7 14.5
00:40 1015 29.97 844 24.92 -7 19.4 81 -9.7 14.6
00:45 1015 29.97 844 24.92 -6.9 19.6 80 -9.8 14.4
00:50 1015 29.97 844 24.92 -6.8 19.7 80 -9.7 14.5
00:55 1015 29.97 844 24.92 -6.7 19.9 80 -9.5 14.8
01:00 1015 29.97 844 24.92 -6.6 20.2 80 -9.6 14.8
01:05 1015 29.97 844 24.92 -6.5 20.4 79 -9.5 14.9
01:10 1015 29.97 844 24.92 -6.6 20.1 81 -9.4 15.1
01:15 1015 29.97 844 24.92 -6.5 20.3 80 -9.4 15.1
01:20 1015 29.97 844 24.92 -6.4 20.4 80 -9.3 15.2
01:25 1015 29.97 844 24.92 -6.4 20.5 80 -9.3 15.3
01:30 1015 29.97 844 24.92 -6.3 20.7 79 -9.3 15.3
01:35 1015 29.97 844 24.92 -6.2 20.8 79 -9.3 15.3
01:40 1015 29.97 844 24.92 -6.1 21 79 -9.1 15.6
01:45 1015 29.97 844 24.92 -6 21.2 80 -9 15.8
01:50 1015 29.97 844 24.92 -5.9 21.3 79 -8.9 15.9
01:55 1015 29.97 844 24.92 -5.9 21.4 79 -9 15.8
02:00 1015 29.97 844 24.92 -6 21.2 80 -9 15.9
02:05 1015 29.97 844 24.92 -6.1 21 82 -8.7 16.3
02:10 1015 29.97 844 24.92 -6.4 20.5 83 -8.8 16.2
02:15 1015 29.97 844 24.92 -6.6 20.2 83 -9 15.8
02:20 1015 29.97 844 24.92 -6.8 19.8 84 -9 15.8
02:25 1015 29.97 844 24.92 -6.9 19.6 84 -9.2 15.5
02:30 1015 29.97 844 24.92 -7 19.4 84 -9.2 15.5
02:35 1015 29.97 844 24.92 -7.1 19.3 85 -9.2 15.4
02:40 1015 29.97 844 24.92 -7.1 19.3 86 -9 15.8
02:45 1015 29.97 844 24.92 -6.9 19.6 86 -8.9 16
02:50 1015 29.97 844 24.92 -6.7 20 85 -8.8 16.1
02:55 1015 29.97 844 24.92 -6.6 20.1 85 -8.8 16.2
03:00 1015 29.97 844 24.92 -6.6 20.1 86 -8.7 16.4
03:05 1014 29.94 844 24.92 -6.5 20.3 84 -8.8 16.1
03:10 1014 29.94 844 24.92 -6.4 20.4 83 -8.8 16.1
03:15 1014 29.94 844 24.92 -6.5 20.3 84 -8.8 16.1
03:20 1014 29.94 844 24.92 -6.5 20.4 84 -8.8 16.2
03:25 1014 29.94 844 24.92 -6.4 20.5 83 -8.8 16.1
03:30 1014 29.94 844 24.92 -6.3 20.7 83 -8.7 16.4
03:35 1014 29.94 844 24.92 -6.1 21 83 -8.6 16.5
03:40 1014 29.94 844 24.92 -6.1 21 82 -8.6 16.5
03:45 1014 29.94 843 24.89 -6 21.2 82 -8.6 16.5
03:50 1014 29.94 843 24.89 -6 21.2 82 -8.6 16.6
03:55 1014 29.94 843 24.89 -5.9 21.3 83 -8.5 16.8
04:00 1014 29.94 843 24.89 -5.6 21.9 81 -8.3 17
04:05 1014 29.94 843 24.89 -5.4 22.3 80 -8.4 16.9
04:10 1014 29.94 843 24.89 -5.4 22.2 80 -8.3 17
04:15 1014 29.94 844 24.92 -5.2 22.6 79 -8.3 17
04:20 1014 29.94 844 24.92 -5.3 22.5 80 -8.2 17.2
04:25 1014 29.94 844 24.92 -5.2 22.7 80 -8.1 17.4
04:30 1014 29.94 844 24.92 -4.9 23.2 80 -7.9 17.8
04:35 1014 29.94 844 24.92 -4.8 23.3 79 -7.9 17.9
04:40 1014 29.94 844 24.92 -4.7 23.6 79 -7.7 18.1
04:45 1014 29.94 844 24.92 -4.5 24 79 -7.5 18.5
04:50 1015 29.97 844 24.92 -4.4 24 79 -7.6 18.4
04:55 1015 29.97 844 24.92 -4.5 24 79 -7.5 18.5
05:00 1015 29.97 844 24.92 -4.4 24 80 -7.4 18.6
05:05 1015 29.97 844 24.92 -4.4 24.1 79 -7.5 18.5
05:10 1015 29.97 844 24.92 -4.5 23.9 80 -7.5 18.6
05:15 1015 29.97 844 24.92 -4.5 24 80 -7.4 18.7
05:20 1015 29.97 844 24.92 -4.4 24.1 80 -7.3 18.8
05:25 1015 29.97 844 24.92 -4.3 24.2 80 -7.3 18.8
05:30 1015 29.97 844 24.92 -4.6 23.7 80 -7.5 18.5
05:35 1015 29.97 844 24.92 -4.9 23.1 82 -7.6 18.3
05:40 1015 29.97 844 24.92 -4.9 23.2 81 -7.6 18.3
05:45 1015 29.97 844 24.92 -4.9 23.2 82 -7.5 18.4
05:50 1015 29.97 844 24.92 -4.9 23.2 83 -7.4 18.7
05:55 1015 29.97 844 24.92 -4.7 23.6 82 -7.4 18.8
06:00 1015 29.97 844 24.92 -4.5 23.9 82 -7.2 19.1
06:05 1015 29.97 844 24.92 -4.5 23.9 82 -7.1 19.2
06:10 1015 29.97 845 24.95 -4.5 24 82 -7.1 19.2
06:15 1016 30 845 24.95 -4.7 23.5 78 -8 17.7
06:20 1016 30 845 24.95 -5.6 21.9 80 -8.5 16.8
06:25 1016 30 845 24.95 -5.9 21.3 82 -8.5 16.7
06:30 1016 30 845 24.95 -5.8 21.5 85 -8 17.6
06:35 1016 30 846 24.98 -5.6 21.9 86 -7.6 18.4
06:40 1016 30 846 24.98 -5.5 22.1 87 -7.3 18.9
06:45 1017 30.03 846 24.98 -5.2 22.7 88 -6.9 19.6
06:50 1017 30.03 846 24.98 -5 22.9 88 -6.7 19.9
06:55 1017 30.03 846 24.98 -5 23 88 -6.7 20
07:00 1017 30.03 846 24.98 -5.3 22.5 86 -7.3 18.9
07:05 1017 30.03 846 24.98 -5.6 21.9 89 -7.2 19.1
07:10 1017 30.03 846 24.98 -5 23 91 -6.3 20.6
07:15 1017 30.03 846 24.98 -4.5 23.9 88 -6.2 20.8
07:20 1017 30.03 846 24.98 -4.2 24.4 88 -5.9 21.4
07:25 1017 30.03 846 24.98 -3.7 25.4 87 -5.6 22
07:30 1017 30.03 846 24.98 -3.6 25.5 89 -5.2 22.6
07:35 1017 30.03 846 24.98 -3.3 26 89 -4.9 23.1
07:40 1017 30.03 847 25.01 -3 26.5 88 -4.7 23.5
07:45 1017 30.03 847 25.01 -2.8 26.9 87 -4.7 23.5
07:50 1017 30.03 847 25.01 -2.7 27.1 85 -4.9 23.2
07:55 1018 30.06 847 25.01 -2.5 27.4 84 -4.9 23.1
08:00 1018 30.06 847 25.01 -2.4 27.7 83 -4.9 23.2
08:05 1018 30.06 847 25.01 -2.3 27.8 85 -4.5 23.9
08:10 1018 30.06 847 25.01 -2.3 27.8 86 -4.3 24.3
08:15 1018 30.06 847 25.01 -2.4 27.6 87 -4.4 24.1
08:20 1018 30.06 847 25.01 -2.4 27.6 86 -4.5 23.9
08:25 1018 30.06 847 25.01 -2.3 27.8 85 -4.6 23.8
08:30 1018 30.06 847 25.01 -2.2 28.1 83 -4.6 23.7
08:35 1018 30.06 847 25.01 -2.1 28.3 83 -4.6 23.7
08:40 1018 30.06 847 25.01 -1.9 28.6 82 -4.5 23.9
08:45 1018 30.06 847 25.01 -1.9 28.5 82 -4.5 23.8
08:50 1018 30.06 847 25.01 -1.9 28.6 82 -4.6 23.7
08:55 1018 30.06 847 25.01 -1.9 28.6 83 -4.5 24
09:00 1018 30.06 847 25.01 -1.7 29 82 -4.3 24.2
09:05 1018 30.06 847 25.01 -1.3 29.6 81 -4.1 24.5
09:10 1018 30.06 847 25.01 -1.2 29.8 82 -3.9 25
09:15 1018 30.06 847 25.01 -1.2 29.8 82 -3.9 25
09:20 1018 30.06 847 25.01 -1 30.2 81 -3.8 25.1
09:25 1018 30.06 847 25.01 -1 30.3 81 -3.8 25.2
09:30 1018 30.06 847 25.01 -1 30.2 81 -3.8 25.1
09:35 1018 30.06 847 25.01 -1 30.3 81 -3.9 25
09:40 1018 30.06 847 25.01 -1 30.2 81 -3.9 25
09:45 1018 30.06 848 25.04 -0.9 30.3 81 -3.8 25.2
09:50 1018 30.06 848 25.04 -1 30.2 84 -3.3 26
09:55 1018 30.06 848 25.04 -1.5 29.3 89 -3.1 26.4
10:00 1019 30.09 848 25.04 -1.7 28.9 91 -3.1 26.5
10:05 1019 30.09 848 25.04 -1.8 28.8 91 -3 26.6
10:10 1019 30.09 848 25.04 -1.6 29.1 92 -2.8 26.9
10:15 1019 30.09 848 25.04 -1.5 29.4 92 -2.6 27.3
10:20 1019 30.09 848 25.04 -1.4 29.5 92 -2.6 27.4
10:25 1019 30.09 848 25.04 -1.2 29.8 92 -2.4 27.7
10:30 1019 30.09 848 25.04 -1.1 30 91 -2.4 27.7
10:35 1019 30.09 848 25.04 -1.2 29.8 92 -2.4 27.7
10:40 1019 30.09 848 25.04 -0.9 30.3 92 -2 28.4
10:45 1019 30.09 849 25.07 -0.3 31.4 92 -1.5 29.3
10:50 1019 30.09 849 25.07 -0.1 31.7 90 -1.5 29.2
10:55 1020 30.12 849 25.07 -0.3 31.5 90 -1.8 28.8
11:00 1019 30.09 849 25.07 -0.3 31.5 90 -1.8 28.8
11:05 1019 30.09 848 25.04 -0.1 31.9 90 -1.6 29.2
11:10 1019 30.09 848 25.04 0.5 33 88 -1.2 29.8
11:15 1019 30.09 848 25.04 0.7 33.2 87 -1.3 29.6
11:20 1019 30.09 848 25.04 0.3 32.6 87 -1.6 29
11:25 1019 30.09 848 25.04 -0.1 31.8 88 -2 28.5
11:30 1019 30.09 848 25.04 -0.3 31.5 87 -2.1 28.2
11:35 1019 30.09 848 25.04 -0.5 31.1 88 -2.2 28
11:40 1019 30.09 848 25.04 -0.7 30.8 88 -2.4 27.7
11:45 1019 30.09 848 25.04 -0.5 31 89 -2.1 28.1
11:50 1019 30.09 848 25.04 0.1 32.2 85 -2.1 28.1
11:55 1019 30.09 848 25.04 -0.2 31.7 85 -2.3 27.8
12:00 1019 30.09 848 25.04 -0.1 31.9 86 -2.1 28.3
12:05 1019 30.09 848 25.04 0.5 32.9 84 -1.9 28.5
12:10 1019 30.09 848 25.04 0.9 33.7 79 -2.2 28
12:15 1019 30.09 848 25.04 0.6 33.1 80 -2.4 27.8
12:20 1019 30.09 848 25.04 0.7 33.2 80 -2.3 27.8
12:25 1019 30.09 848 25.04 0.4 32.7 82 -2.4 27.8
12:30 1019 30.09 848 25.04 0.4 32.7 81 -2.5 27.5
12:35 1019 30.09 848 25.04 -0.1 31.8 83 -2.7 27.2
12:40 1019 30.09 848 25.04 -0.5 31.2 84 -2.9 26.8
12:45 1019 30.09 848 25.04 -0.8 30.6 83 -3.2 26.2
12:50 1019 30.09 848 25.04 -1.1 30.1 82 -3.7 25.4
12:55 1019 30.09 848 25.04 -0.9 30.3 81 -3.8 25.2
13:00 1019 30.09 848 25.04 -1 30.1 81 -3.9 24.9
13:05 1019 30.09 848 25.04 -1.1 30 81 -4 24.8
13:10 1019 30.09 848 25.04 -0.9 30.4 79 -4.1 24.7
13:15 1019 30.09 848 25.04 -1.3 29.7 81 -4.1 24.6
13:20 1019 30.09 848 25.04 -1.3 29.6 81 -4.2 24.4
13:25 1019 30.09 848 25.04 -1.4 29.5 81 -4.3 24.3
13:30 1019 30.09 848 25.04 -1.6 29.1 81 -4.5 23.9
13:35 1019 30.09 849 25.07 -1.6 29.2 79 -4.7 23.5
13:40 1019 30.09 849 25.07 -1.6 29.1 80 -4.6 23.7
13:45 1019 30.09 849 25.07 -1.5 29.3 79 -4.6 23.7
13:50 1020 30.12 849 25.07 -1.5 29.3 79 -4.7 23.6
13:55 1020 30.12 849 25.07 -1.8 28.8 81 -4.7 23.6
14:00 1020 30.12 849 25.07 -1.9 28.5 81 -4.7 23.5
14:05 1020 30.12 849 25.07 -1.9 28.6 81 -4.7 23.5
14:10 1020 30.12 849 25.07 -2.1 28.3 81 -4.9 23.2
14:15 1020 30.12 849 25.07 -2.3 27.9 82 -5 23
14:20 1020 30.12 849 25.07 -2.3 27.8 81 -5.1 22.8
14:25 1020 30.12 849 25.07 -2.8 27 81 -5.6 21.9
14:30 1020 30.12 849 25.07 -3.2 26.2 82 -5.9 21.3
14:35 1020 30.12 849 25.07 -3.3 26 82 -5.9 21.4
14:40 1020 30.12 850 25.1 -3.3 26.1 80 -6.2 20.9
14:45 1020 30.12 850 25.1 -3.4 25.9 80 -6.3 20.6
14:50 1020 30.12 850 25.1 -3.3 26.1 79 -6.5 20.4
14:55 1021 30.15 850 25.1 -3.4 25.8 79 -6.6 20.2
15:00 1021 30.15 850 25.1 -3.5 25.6 79 -6.7 19.9
15:05 1021 30.15 850 25.1 -3.7 25.4 78 -6.9 19.5
15:10 1021 30.15 850 25.1 -3.7 25.3 79 -6.9 19.5
15:15 1021 30.15 850 25.1 -3.8 25.1 79 -7 19.5
15:20 1021 30.15 850 25.1 -4.3 24.2 80 -7.2 19
15:25 1021 30.15 850 25.1 -4.4 24 80 -7.5 18.6
15:30 1021 30.15 850 25.1 -4.4 24.1 79 -7.5 18.6
15:35 1021 30.15 850 25.1 -4.5 24 80 -7.5 18.5
15:40 1021 30.15 850 25.1 -4.6 23.8 79 -7.7 18.1
15:45 1021 30.15 850 25.1 -4.9 23.1 80 -7.8 18
15:50 1021 30.15 850 25.1 -5 23 81 -7.8 18
15:55 1021 30.15 850 25.1 -5.1 22.8 81 -7.8 17.9
16:00 1021 30.15 850 25.1 -5 23 81 -7.7 18.1
16:05 1021 30.15 850 25.1 -5 23.1 83 -7.4 18.7
16:10 1021 30.15 850 25.1 -4.8 23.3 81 -7.6 18.3
16:15 1021 30.15 850 25.1 -4.9 23.2 82 -7.6 18.3
16:20 1020 30.12 850 25.1 -4.9 23.2 81 -7.6 18.3
16:25 1021 30.15 850 25.1 -4.9 23.2 82 -7.6 18.4
16:30 1021 30.15 850 25.1 -4.7 23.5 81 -7.4 18.6
16:35 1021 30.15 850 25.1 -4.6 23.7 81 -7.4 18.7
16:40 1021 30.15 850 25.1 -4.5 23.9 81 -7.3 18.9
16:45 1021 30.15 850 25.1 -4.5 23.9 80 -7.5 18.5
16:50 1021 30.15 850 25.1 -4.6 23.7 80 -7.5 18.5
16:55 1021 30.15 850 25.1 -4.7 23.6 80 -7.6 18.4
17:00 1021 30.15 850 25.1 -4.6 23.7 80 -7.5 18.5
17:05 1021 30.15 850 25.1 -4.5 23.8 81 -7.4 18.7
17:10 1021 30.15 850 25.1 -4.5 23.9 80 -7.4 18.7
17:15 1021 30.15 850 25.1 -4.5 23.9 80 -7.4 18.7
17:20 1021 30.15 850 25.1 -4.5 23.9 81 -7.3 18.9
17:25 1021 30.15 851 25.13 -4.5 24 82 -7.1 19.2
17:30 1022 30.18 851 25.13 -4.6 23.6 83 -7.1 19.2
17:35 1022 30.18 851 25.13 -4.7 23.6 83 -7.1 19.2
17:40 1022 30.18 851 25.13 -4.8 23.4 84 -7 19.3
17:45 1022 30.18 851 25.13 -4.8 23.4 84 -7.1 19.3
17:50 1022 30.18 851 25.13 -4.8 23.3 83 -7.3 18.9
17:55 1022 30.18 851 25.13 -5.1 22.9 84 -7.3 18.8
18:00 1022 30.18 851 25.13 -5.2 22.7 85 -7.3 18.8
18:05 1022 30.18 851 25.13 -4.9 23.2 84 -7.2 19.1
18:10 1022 30.18 851 25.13 -4.7 23.6 83 -7.2 19.1
18:15 1022 30.18 851 25.13 -4.6 23.7 82 -7.2 19
18:20 1022 30.18 851 25.13 -4.6 23.7 80 -7.5 18.5
18:25 1022 30.18 851 25.13 -4.9 23.1 83 -7.4 18.7
18:30 1022 30.18 851 25.13 -4.8 23.3 83 -7.3 18.8
18:35 1022 30.18 851 25.13 -4.9 23.2 83 -7.4 18.7
18:40 1022 30.18 851 25.13 -5.1 22.9 84 -7.3 18.9
18:45 1022 30.18 851 25.13 -4.9 23.1 83 -7.4 18.7
18:50 1022 30.18 851 25.13 -5 22.9 84 -7.4 18.7
18:55 1022 30.18 851 25.13 -5.3 22.4 85 -7.6 18.4
19:00 1022 30.18 851 25.13 -5.4 22.3 85 -7.6 18.4
19:05 1022 30.18 851 25.13 -5.4 22.3 85 -7.5 18.5
19:10 1022 30.18 851 25.13 -5.4 22.2 85 -7.5 18.4
19:15 1022 30.18 851 25.13 -5.5 22 85 -7.7 18.2
19:20 1022 30.18 851 25.13 -5.7 21.7 86 -7.8 18
19:25 1022 30.18 851 25.13 -5.8 21.5 84 -8.1 17.5
19:30 1022 30.18 851 25.13 -5.9 21.3 85 -8.1 17.4
19:35 1022 30.18 851 25.13 -6 21.2 85 -8.1 17.4
19:40 1022 30.18 851 25.13 -6 21.1 86 -8.1 17.5
19:45 1022 30.18 851 25.13 -6 21.3 86 -7.9 17.8
19:50 1022 30.18 851 25.13 -5.7 21.7 84 -8 17.7
19:55 1022 30.18 852 25.16 -5.7 21.7 84 -8 17.5
20:00 1022 30.18 851 25.13 -5.8 21.5 84 -8.2 17.3
20:05 1022 30.18 852 25.16 -5.8 21.6 83 -8.2 17.2
20:10 1022 30.18 852 25.16 -5.7 21.7 82 -8.3 17.1
20:15 1023 30.21 852 25.16 -5.7 21.7 83 -8.2 17.2
20:20 1023 30.21 852 25.16 -5.7 21.8 83 -8.2 17.2
20:25 1023 30.21 852 25.16 -5.7 21.8 82 -8.3 17.1
20:30 1023 30.21 852 25.16 -5.9 21.4 82 -8.5 16.7
20:35 1023 30.21 852 25.16 -6.4 20.5 83 -8.9 16
20:40 1023 30.21 852 25.16 -6.7 20 84 -8.9 16
20:45 1023 30.21 852 25.16 -6.5 20.4 83 -8.9 15.9
20:50 1023 30.21 852 25.16 -6.4 20.5 83 -8.9 16
20:55 1023 30.21 852 25.16 -6.3 20.6 83 -8.8 16.1
21:00 1023 30.21 852 25.16 -6.3 20.6 82 -8.9 15.9
21:05 1023 30.21 852 25.16 -6.6 20.2 83 -9 15.8
21:10 1023 30.21 852 25.16 -6.7 19.9 84 -9 15.8
21:15 1023 30.21 852 25.16 -6.7 19.9 84 -8.9 16
21:20 1022 30.18 852 25.16 -6.6 20 85 -8.8 16.1
21:25 1022 30.18 852 25.16 -6.6 20.1 85 -8.8 16.2
21:30 1023 30.21 852 25.16 -6.6 20.1 85 -8.7 16.3
21:35 1023 30.21 852 25.16 -6.5 20.3 85 -8.7 16.4
21:40 1023 30.21 852 25.16 -6.5 20.3 84 -8.7 16.3
21:45 1023 30.21 852 25.16 -6.4 20.4 85 -8.6 16.4
21:50 1023 30.21 852 25.16 -6.3 20.6 84 -8.5 16.6
21:55 1023 30.21 852 25.16 -6.3 20.7 84 -8.5 16.7
22:00 1023 30.21 852 25.16 -6.3 20.7 84 -8.5 16.6
22:05 1022 30.18 852 25.16 -6.3 20.6 85 -8.5 16.7
22:10 1022 30.18 851 25.13 -6.2 20.8 85 -8.4 16.9
22:15 1022 30.18 851 25.13 -6.2 20.9 85 -8.4 17
22:20 1022 30.18 851 25.13 -6.3 20.7 85 -8.4 16.9
22:25 1022 30.18 851 25.13 -6.4 20.5 86 -8.4 16.9
22:30 1022 30.18 851 25.13 -6.4 20.5 85 -8.4 16.8
22:35 1022 30.18 851 25.13 -6.4 20.5 86 -8.4 17
22:40 1022 30.18 851 25.13 -6.3 20.7 86 -8.3 17.1
22:45 1022 30.18 851 25.13 -6.3 20.6 86 -8.4 17
22:50 1022 30.18 851 25.13 -6.4 20.5 86 -8.4 16.9
22:55 1022 30.18 851 25.13 -6.4 20.5 86 -8.3 17
23:00 1022 30.18 851 25.13 -6.3 20.7 87 -8.2 17.3
23:05 1022 30.18 851 25.13 -6.2 20.9 86 -8.2 17.3
23:10 1022 30.18 851 25.13 -6.2 20.8 87 -8.1 17.4
23:15 1022 30.18 851 25.13 -6 21.3 87 -7.7 18.1
23:20 1022 30.18 851 25.13 -5.4 22.3 85 -7.6 18.4
23:25 1022 30.18 851 25.13 -5.3 22.4 84 -7.7 18.2
23:30 1021 30.15 851 25.13 -5.4 22.2 85 -7.6 18.4
23:35 1021 30.15 851 25.13 -5.1 22.8 84 -7.4 18.7
23:40 1021 30.15 851 25.13 -5 23 84 -7.4 18.8
23:45 1021 30.15 851 25.13 -5 22.9 84 -7.4 18.7
23:50 1021 30.15 850 25.1 -4.7 23.5 83 -7.2 19
23:55 1021 30.15 850 25.1 -4.1 24.7 80 -7.1 19.2
24:00 1021 30.15 850 25.1 -3.8 25.2 79 -6.9 19.6